Time;durP1;ratioP1;P1;durP2;ratioP2;P2;SDS_P1;SDS_P2;PMS_P1;PMS_P2;Temp;Humidity;BMP_temperature;BMP_pressure;BME280_temperature;BME280_humidity;BME280_pressure;Samples;Min_cycle;Max_cycle;Signal;HPM_P1;HPM_P2
2023/06/08 00:00:15;;;;;;;4.93;1.70;;;17.60;99.90;;;;;;5077207;28;21004;-85
2023/06/08 00:02:44;;;;;;;1.67;1.57;;;17.60;99.90;;;;;;5076100;28;20967;-85
2023/06/08 00:05:13;;;;;;;3.73;1.87;;;17.60;99.90;;;;;;5076080;28;20484;-85
2023/06/08 00:07:40;;;;;;;3.17;2.27;;;17.60;99.90;;;;;;5075914;28;20452;-85
2023/06/08 00:10:08;;;;;;;1.90;1.70;;;17.60;99.90;;;;;;5075893;28;20453;-85
2023/06/08 00:12:36;;;;;;;10.23;2.00;;;17.60;99.90;;;;;;5075537;28;20967;-85
2023/06/08 00:15:05;;;;;;;1.57;1.47;;;17.50;99.90;;;;;;5075815;28;20449;-85
2023/06/08 00:17:32;;;;;;;2.70;1.30;;;17.50;99.90;;;;;;5075485;28;20448;-85
2023/06/08 00:20:00;;;;;;;1.50;1.37;;;17.50;99.90;;;;;;5075578;28;20912;-85
2023/06/08 00:22:26;;;;;;;2.20;1.70;;;17.50;99.90;;;;;;5075681;28;20445;-85
2023/06/08 00:24:53;;;;;;;1.70;1.40;;;17.50;99.90;;;;;;5075362;28;20484;-85
2023/06/08 00:27:20;;;;;;;1.37;1.00;;;17.50;99.90;;;;;;5075537;28;20456;-85
2023/06/08 00:29:47;;;;;;;1.77;1.40;;;17.40;99.90;;;;;;5075156;28;20441;-85
2023/06/08 00:32:15;;;;;;;1.90;1.57;;;17.40;99.90;;;;;;5075462;28;20850;-85
2023/06/08 00:34:42;;;;;;;1.30;1.20;;;17.40;99.90;;;;;;5075805;28;20436;-86
2023/06/08 00:37:08;;;;;;;1.60;1.50;;;17.40;99.90;;;;;;5075312;28;20469;-85
2023/06/08 00:39:35;;;;;;;2.50;2.20;;;17.40;99.90;;;;;;5075219;28;20464;-85
2023/06/08 00:42:02;;;;;;;1.57;1.47;;;17.40;99.90;;;;;;5075893;28;20449;-85
2023/06/08 00:44:29;;;;;;;2.60;1.50;;;17.40;99.90;;;;;;5075240;28;20453;-84
2023/06/08 00:46:56;;;;;;;1.60;1.50;;;17.40;99.90;;;;;;5074977;28;20511;-85
2023/06/08 00:49:24;;;;;;;2.57;2.00;;;17.40;99.90;;;;;;5075295;28;20449;-85
2023/06/08 00:51:51;;;;;;;1.93;1.80;;;17.30;99.90;;;;;;5075216;28;20449;-85
2023/06/08 00:54:18;;;;;;;2.20;1.50;;;17.30;99.90;;;;;;5074652;28;20441;-85
2023/06/08 00:56:48;;;;;;;3.60;2.07;;;17.20;99.90;;;;;;5075464;28;20469;-85
2023/06/08 00:59:15;;;;;;;3.00;2.33;;;17.20;99.90;;;;;;5074658;28;20438;-85
2023/06/08 01:01:41;;;;;;;1.43;1.33;;;17.10;99.90;;;;;;5074885;28;20447;-85
2023/06/08 01:04:09;;;;;;;1.00;1.00;;;17.20;99.90;;;;;;5074578;28;20449;-85
2023/06/08 01:06:39;;;;;;;1.73;1.40;;;17.20;99.90;;;;;;5074659;28;20484;-85
2023/06/08 01:09:17;;;;;;;1.13;1.13;;;17.20;99.90;;;;;;5075066;28;20433;-85
2023/06/08 01:11:58;;;;;;;2.60;1.53;;;17.20;99.90;;;;;;5074434;28;20434;-85
2023/06/08 01:14:36;;;;;;;1.83;1.27;;;17.10;99.90;;;;;;5074614;28;20436;-85
2023/06/08 01:17:04;;;;;;;1.50;1.40;;;17.00;99.90;;;;;;5074436;28;20510;-85
2023/06/08 01:19:47;;;;;;;1.70;1.60;;;17.00;99.90;;;;;;5074452;28;20453;-85
2023/06/08 01:22:22;;;;;;;2.33;1.93;;;16.80;99.90;;;;;;5073998;28;20484;-85
2023/06/08 01:24:56;;;;;;;1.73;1.63;;;16.80;99.90;;;;;;5074198;28;20460;-85
2023/06/08 01:27:26;;;;;;;2.10;1.80;;;16.70;99.90;;;;;;5074317;28;20494;-85
2023/06/08 01:29:52;;;;;;;2.13;1.93;;;16.60;99.90;;;;;;5074357;28;20445;-85
2023/06/08 01:32:19;;;;;;;2.10;1.63;;;16.60;99.90;;;;;;5074019;28;20444;-85
2023/06/08 01:34:47;;;;;;;5.90;1.90;;;16.60;99.90;;;;;;5074191;28;20444;-85
2023/06/08 01:37:19;;;;;;;1.87;1.77;;;16.60;99.90;;;;;;5074072;28;20445;-85
2023/06/08 01:39:52;;;;;;;1.60;1.53;;;16.50;99.90;;;;;;5073963;28;20433;-86
2023/06/08 01:42:22;;;;;;;1.67;1.23;;;16.40;99.90;;;;;;5074139;28;20433;-85
2023/06/08 01:44:56;;;;;;;2.60;2.23;;;16.40;99.90;;;;;;5074121;28;20449;-85
2023/06/08 01:47:26;;;;;;;2.40;2.20;;;16.40;99.90;;;;;;5074008;28;20426;-85
2023/06/08 01:49:55;;;;;;;1.60;1.43;;;16.30;99.90;;;;;;5074216;28;20429;-85
2023/06/08 01:52:22;;;;;;;1.60;1.50;;;16.30;99.90;;;;;;5073885;28;20445;-85
2023/06/08 01:54:49;;;;;;;2.03;1.70;;;16.30;99.90;;;;;;5073714;28;20445;-85
2023/06/08 01:57:15;;;;;;;1.77;1.67;;;16.20;99.90;;;;;;5073697;28;20448;-85
2023/06/08 01:59:43;;;;;;;1.90;1.63;;;16.20;99.90;;;;;;5073763;28;20813;-85
2023/06/08 02:02:10;;;;;;;2.60;1.20;;;16.20;99.90;;;;;;5073720;28;20530;-85
2023/06/08 02:04:37;;;;;;;1.87;1.30;;;16.10;99.90;;;;;;5073763;28;20812;-85
2023/06/08 02:07:04;;;;;;;1.80;1.70;;;16.10;99.90;;;;;;5073593;28;20554;-85
2023/06/08 02:09:31;;;;;;;3.53;1.53;;;16.10;99.90;;;;;;5073801;28;20457;-85
2023/06/08 02:12:07;;;;;;;1.47;1.37;;;16.10;99.90;;;;;;5072780;28;20804;-85
2023/06/08 02:14:33;;;;;;;1.93;1.73;;;16.10;99.90;;;;;;5073553;28;20448;-85
2023/06/08 02:17:03;;;;;;;1.47;1.37;;;16.10;99.90;;;;;;5073635;28;20817;-85
2023/06/08 02:19:30;;;;;;;1.87;1.60;;;16.10;99.90;;;;;;5073526;28;20452;-85
2023/06/08 02:21:58;;;;;;;1.43;1.30;;;16.00;99.90;;;;;;5073244;28;20483;-85
2023/06/08 02:24:25;;;;;;;1.87;1.60;;;16.00;99.90;;;;;;5073410;28;20445;-85
2023/06/08 02:26:52;;;;;;;2.13;1.70;;;16.00;99.90;;;;;;5072996;28;20984;-85
2023/06/08 02:29:19;;;;;;;1.67;1.57;;;15.90;99.90;;;;;;5073399;28;20480;-85
2023/06/08 02:31:46;;;;;;;2.50;2.07;;;15.90;99.90;;;;;;5073280;28;20932;-85
2023/06/08 02:34:15;;;;;;;1.63;1.43;;;15.90;99.90;;;;;;5073327;28;20493;-85
2023/06/08 02:36:42;;;;;;;2.00;1.63;;;15.90;99.90;;;;;;5073309;28;20469;-85
2023/06/08 02:39:09;;;;;;;1.57;1.47;;;15.90;99.90;;;;;;5073344;28;20413;-85
2023/06/08 02:41:36;;;;;;;2.00;1.90;;;15.80;99.90;;;;;;5073313;28;20464;-85
2023/06/08 02:44:02;;;;;;;3.13;2.00;;;15.80;99.90;;;;;;5073288;28;20448;-85
2023/06/08 02:46:31;;;;;;;1.57;1.50;;;15.80;99.90;;;;;;5073152;28;20481;-85
2023/06/08 02:48:57;;;;;;;1.70;1.60;;;15.80;99.90;;;;;;5073547;28;20586;-85
2023/06/08 02:51:26;;;;;;;2.63;1.73;;;15.70;99.90;;;;;;5072969;28;20963;-85
2023/06/08 02:53:52;;;;;;;2.10;1.73;;;15.70;99.90;;;;;;5073303;28;20445;-85
2023/06/08 02:56:21;;;;;;;2.87;1.90;;;15.70;99.90;;;;;;5072799;28;20467;-85
2023/06/08 02:58:48;;;;;;;1.73;1.63;;;15.70;99.90;;;;;;5073366;28;20448;-85
2023/06/08 03:01:15;;;;;;;4.03;1.73;;;15.70;99.90;;;;;;5073080;28;20615;-85
2023/06/08 03:03:42;;;;;;;2.00;1.60;;;15.60;99.90;;;;;;5072779;28;20998;-85
2023/06/08 03:06:09;;;;;;;1.27;1.17;;;15.60;99.90;;;;;;5073266;28;20484;-85
2023/06/08 03:08:37;;;;;;;1.33;1.23;;;15.60;99.90;;;;;;5073711;28;20448;-85
2023/06/08 03:11:04;;;;;;;2.50;1.73;;;15.60;99.90;;;;;;5072828;28;20455;-85
2023/06/08 03:13:31;;;;;;;1.23;1.13;;;15.50;99.90;;;;;;5073254;28;20449;-86
2023/06/08 03:15:57;;;;;;;1.30;1.20;;;15.50;99.90;;;;;;5073180;28;20598;-85
2023/06/08 03:18:24;;;;;;;1.63;1.40;;;15.40;99.90;;;;;;5072935;28;20456;-86
2023/06/08 03:20:51;;;;;;;1.87;1.07;;;15.40;99.90;;;;;;5072716;28;20481;-85
2023/06/08 03:23:19;;;;;;;2.80;1.57;;;15.30;99.90;;;;;;5074421;28;20444;-85
2023/06/08 03:25:48;;;;;;;0.90;0.90;;;15.30;99.90;;;;;;5076528;28;20911;-85
2023/06/08 03:28:15;;;;;;;2.43;1.67;;;15.30;99.90;;;;;;5076559;28;20815;-85
2023/06/08 03:30:42;;;;;;;2.27;1.43;;;15.20;99.90;;;;;;5076714;28;20453;-85
2023/06/08 03:33:10;;;;;;;2.10;1.47;;;15.20;99.90;;;;;;5076648;28;20440;-85
2023/06/08 03:35:37;;;;;;;2.07;1.70;;;15.20;99.90;;;;;;5076398;28;20474;-85
2023/06/08 03:38:03;;;;;;;1.63;1.20;;;15.20;99.90;;;;;;5076808;28;20445;-85
2023/06/08 03:40:30;;;;;;;1.83;1.63;;;15.20;99.90;;;;;;5076374;28;20445;-85
2023/06/08 03:42:58;;;;;;;1.73;1.33;;;15.20;99.90;;;;;;5076146;28;20432;-85
2023/06/08 03:45:25;;;;;;;1.40;1.30;;;15.20;99.90;;;;;;5076297;28;20472;-85
2023/06/08 03:47:52;;;;;;;2.67;1.60;;;15.30;99.90;;;;;;5076220;28;20847;-85
2023/06/08 03:50:19;;;;;;;4.37;1.50;;;15.40;99.90;;;;;;5076042;28;20543;-85
2023/06/08 03:52:45;;;;;;;1.77;1.33;;;15.40;99.90;;;;;;5075987;28;20456;-85
2023/06/08 03:55:13;;;;;;;1.80;1.47;;;15.40;99.90;;;;;;5076122;28;20469;-85
2023/06/08 03:57:40;;;;;;;2.30;1.57;;;15.50;99.90;;;;;;5076146;28;20441;-85
2023/06/08 04:00:11;;;;;;;2.13;1.60;;;15.50;99.90;;;;;;5076042;28;20448;-85
2023/06/08 04:02:38;;;;;;;1.50;1.20;;;15.50;99.90;;;;;;5076515;28;20482;-85
2023/06/08 04:05:06;;;;;;;3.57;1.80;;;15.50;99.90;;;;;;5076330;28;20453;-85
2023/06/08 04:07:34;;;;;;;1.43;1.27;;;15.40;99.90;;;;;;5076003;28;20481;-85
2023/06/08 04:10:01;;;;;;;1.50;1.30;;;15.40;99.90;;;;;;5075953;28;20888;-85
2023/06/08 04:12:28;;;;;;;1.43;1.33;;;15.50;99.90;;;;;;5075943;28;20460;-85
2023/06/08 04:14:55;;;;;;;1.90;1.57;;;15.50;99.90;;;;;;5075335;28;20955;-85
2023/06/08 04:17:23;;;;;;;9.03;1.90;;;15.60;99.90;;;;;;5075718;28;20460;-85
2023/06/08 04:19:50;;;;;;;2.03;1.13;;;15.70;99.90;;;;;;5075370;28;21074;-85
2023/06/08 04:22:17;;;;;;;3.13;1.63;;;15.90;99.90;;;;;;5075576;28;20476;-85
2023/06/08 04:24:45;;;;;;;2.20;1.73;;;16.00;99.90;;;;;;5075831;28;20519;-85
2023/06/08 04:27:12;;;;;;;3.17;1.93;;;16.20;99.90;;;;;;5083551;28;20491;-85
2023/06/08 04:29:40;;;;;;;1.73;1.07;;;16.30;99.90;;;;;;5075791;28;20489;-85
2023/06/08 04:32:07;;;;;;;2.63;1.83;;;16.50;99.90;;;;;;5075486;28;20856;-85
2023/06/08 04:34:35;;;;;;;3.40;1.73;;;16.60;99.90;;;;;;5074584;28;20456;-85
2023/06/08 04:37:02;;;;;;;2.07;1.80;;;16.70;99.90;;;;;;5075034;28;20461;-85
2023/06/08 04:39:28;;;;;;;1.53;1.40;;;16.80;99.90;;;;;;5075049;28;20433;-85
2023/06/08 04:41:55;;;;;;;1.90;1.50;;;16.80;99.90;;;;;;5075250;28;20450;-85
2023/06/08 04:44:22;;;;;;;2.90;2.17;;;16.90;99.90;;;;;;5075115;28;20523;-85
2023/06/08 04:46:48;;;;;;;1.43;1.30;;;16.90;99.90;;;;;;5074990;28;20847;-85
2023/06/08 04:49:16;;;;;;;3.37;1.83;;;17.00;99.90;;;;;;5075239;28;20449;-85
2023/06/08 04:51:46;;;;;;;2.00;1.77;;;16.90;99.90;;;;;;5075037;28;20541;-84
2023/06/08 04:54:14;;;;;;;2.90;1.53;;;16.80;99.90;;;;;;5074857;28;21039;-83
2023/06/08 04:56:41;;;;;;;1.27;1.17;;;16.60;99.90;;;;;;5074634;28;20464;-83
2023/06/08 04:59:08;;;;;;;2.43;2.17;;;16.50;99.90;;;;;;5074849;28;20448;-83
2023/06/08 05:01:35;;;;;;;2.50;2.30;;;16.20;99.90;;;;;;5074776;28;20448;-83
2023/06/08 05:04:02;;;;;;;2.20;1.73;;;16.00;99.90;;;;;;5074370;28;21013;-83
2023/06/08 05:06:30;;;;;;;1.60;1.20;;;15.90;99.90;;;;;;5074561;28;20487;-83
2023/06/08 05:08:58;;;;;;;2.47;2.17;;;15.90;99.90;;;;;;5074639;28;20444;-84
2023/06/08 05:11:24;;;;;;;1.20;1.10;;;15.80;99.90;;;;;;5074695;28;20464;-83
2023/06/08 05:13:51;;;;;;;4.70;1.73;;;15.90;99.90;;;;;;5074232;28;20445;-84
2023/06/08 05:16:18;;;;;;;1.30;1.20;;;15.90;99.90;;;;;;5074185;28;20831;-83
2023/06/08 05:18:45;;;;;;;2.63;2.43;;;16.00;99.90;;;;;;5074180;28;20445;-84
2023/06/08 05:21:11;;;;;;;1.47;1.37;;;16.10;99.90;;;;;;5074141;28;20473;-84
2023/06/08 05:23:39;;;;;;;2.20;1.90;;;16.10;99.90;;;;;;5074379;28;20449;-83
2023/06/08 05:26:07;;;;;;;1.70;1.60;;;16.20;99.90;;;;;;5074269;28;20464;-84
2023/06/08 05:28:34;;;;;;;2.10;1.87;;;16.40;99.90;;;;;;5074087;28;20453;-84
2023/06/08 05:31:01;;;;;;;1.10;1.07;;;16.50;99.90;;;;;;5074185;28;20455;-84
2023/06/08 05:33:27;;;;;;;2.50;1.67;;;16.60;99.90;;;;;;5073903;28;20944;-84
2023/06/08 05:35:54;;;;;;;2.30;1.87;;;16.80;99.90;;;;;;5073775;28;20461;-83
2023/06/08 05:38:21;;;;;;;3.33;1.70;;;16.90;99.90;;;;;;5074049;28;20448;-84
2023/06/08 05:40:48;;;;;;;1.80;1.70;;;17.10;99.90;;;;;;5074062;28;20467;-83
2023/06/08 05:43:16;;;;;;;2.77;1.70;;;17.20;99.90;;;;;;5074005;28;20455;-84
2023/06/08 05:45:44;;;;;;;1.63;1.50;;;17.40;99.90;;;;;;5073068;28;20469;-84
2023/06/08 05:48:10;;;;;;;1.90;1.73;;;17.50;99.90;;;;;;5073536;28;20899;-84
2023/06/08 05:50:37;;;;;;;2.50;1.40;;;17.70;99.90;;;;;;5073663;28;20947;-84
2023/06/08 05:53:04;;;;;;;2.07;1.97;;;17.90;99.90;;;;;;5074083;28;20445;-85
2023/06/08 05:55:31;;;;;;;1.87;1.70;;;18.10;99.90;;;;;;5073718;28;20476;-85
2023/06/08 05:57:58;;;;;;;2.10;1.87;;;18.20;99.90;;;;;;5073747;28;20936;-84
2023/06/08 06:00:26;;;;;;;4.20;2.03;;;18.40;99.90;;;;;;5073542;28;20424;-85
2023/06/08 06:02:53;;;;;;;1.67;1.57;;;18.60;99.90;;;;;;5073943;28;20426;-85
2023/06/08 06:05:20;;;;;;;1.67;1.57;;;18.80;99.90;;;;;;5073687;28;20469;-85
2023/06/08 06:07:47;;;;;;;1.40;1.30;;;19.00;99.90;;;;;;5073590;28;20477;-85
2023/06/08 06:10:14;;;;;;;2.80;1.57;;;19.10;99.90;;;;;;5073312;28;20952;-83
2023/06/08 06:12:40;;;;;;;3.53;1.77;;;19.30;99.90;;;;;;5075644;28;20453;-86
2023/06/08 06:15:08;;;;;;;2.00;1.90;;;19.30;99.90;;;;;;5074268;28;20455;-87
2023/06/08 06:17:37;;;;;;;1.93;1.77;;;19.40;99.90;;;;;;5074139;28;20445;-86
2023/06/08 06:20:05;;;;;;;2.00;1.40;;;19.40;99.90;;;;;;5073729;28;20464;-86
2023/06/08 06:22:32;;;;;;;2.00;1.80;;;19.50;99.90;;;;;;5073923;28;20429;-87
2023/06/08 06:24:58;;;;;;;2.13;1.67;;;19.60;99.90;;;;;;5073564;28;20947;-86
2023/06/08 06:27:25;;;;;;;2.80;2.20;;;19.70;99.90;;;;;;5073690;28;20480;-86
2023/06/08 06:29:52;;;;;;;2.10;2.00;;;19.80;99.90;;;;;;5073744;28;20463;-87
2023/06/08 06:32:19;;;;;;;1.90;1.30;;;20.00;99.90;;;;;;5073778;28;20448;-87
2023/06/08 06:34:47;;;;;;;2.20;1.67;;;20.10;99.90;;;;;;5073482;28;20482;-87
2023/06/08 06:37:14;;;;;;;1.57;1.47;;;20.30;99.90;;;;;;5073723;28;20443;-87
2023/06/08 06:39:41;;;;;;;1.93;1.70;;;20.60;99.90;;;;;;5073743;28;20444;-87
2023/06/08 06:42:08;;;;;;;2.10;1.70;;;21.20;99.90;;;;;;5073528;28;20437;-88
2023/06/08 06:44:34;;;;;;;1.40;1.30;;;21.60;99.90;;;;;;5073484;28;20453;-87
2023/06/08 06:47:01;;;;;;;1.33;1.23;;;22.00;99.90;;;;;;5073503;28;20942;-86
2023/06/08 06:49:28;;;;;;;1.70;1.60;;;22.10;99.90;;;;;;5074399;28;20797;-86
2023/06/08 06:51:56;;;;;;;2.17;1.53;;;22.30;99.90;;;;;;5074118;28;20789;-86
2023/06/08 06:54:23;;;;;;;1.30;1.20;;;22.60;99.90;;;;;;5073560;28;20860;-86
2023/06/08 06:56:49;;;;;;;2.07;1.60;;;22.90;99.90;;;;;;5074420;28;20221;-86
2023/06/08 06:59:17;;;;;;;1.47;1.37;;;23.10;99.90;;;;;;5077475;28;20559;-87
2023/06/08 07:01:44;;;;;;;1.52;1.42;;;23.20;99.90;;;;;;5077486;28;20201;-87
2023/06/08 07:04:14;;;;;;;1.48;1.38;;;23.40;99.90;;;;;;5077901;28;20202;-87
2023/06/08 07:06:42;;;;;;;2.17;1.45;;;23.60;99.90;;;;;;5077360;28;20271;-87
2023/06/08 07:09:11;;;;;;;2.13;1.75;;;23.70;99.90;;;;;;5077511;28;20202;-87
2023/06/08 07:11:38;;;;;;;1.70;1.30;;;23.90;99.90;;;;;;5077640;28;20251;-87
2023/06/08 07:14:05;;;;;;;1.50;1.27;;;23.80;99.90;;;;;;5078020;28;20225;-87
2023/06/08 07:16:31;;;;;;;1.75;1.65;;;23.70;99.90;;;;;;5077479;28;20230;-86
2023/06/08 07:18:58;;;;;;;1.58;1.48;;;23.60;99.90;;;;;;5077744;28;20209;-87
2023/06/08 07:21:25;;;;;;;1.55;1.40;;;23.50;99.90;;;;;;5077318;28;20241;-87
2023/06/08 07:23:52;;;;;;;1.65;1.55;;;23.40;99.90;;;;;;5077581;28;20256;-87
2023/06/08 07:26:20;;;;;;;1.55;1.45;;;23.40;99.90;;;;;;5076918;28;20214;-81
2023/06/08 07:28:52;;;;;;;1.55;1.45;;;23.30;99.90;;;;;;5076203;28;20590;-83
2023/06/08 07:31:18;;;;;;;2.22;1.85;;;23.30;99.90;;;;;;5076307;28;20665;-83
2023/06/08 07:33:45;;;;;;;1.40;1.30;;;23.50;99.90;;;;;;5076222;28;20688;-83
2023/06/08 07:36:13;;;;;;;2.45;1.67;;;23.50;99.90;;;;;;5076103;28;20222;-83
2023/06/08 07:38:40;;;;;;;2.20;2.10;;;23.50;99.90;;;;;;5076210;28;20213;-83
2023/06/08 07:41:06;;;;;;;2.08;1.88;;;23.90;99.90;;;;;;5076540;28;20284;-81
2023/06/08 07:43:35;;;;;;;1.63;1.50;;;24.20;99.90;;;;;;5076298;28;20202;-79
2023/06/08 07:46:01;;;;;;;1.98;1.30;;;24.70;99.90;;;;;;5076275;28;20237;-82
2023/06/08 07:48:28;;;;;;;1.80;1.70;;;25.40;99.90;;;;;;5076160;28;20226;-81
2023/06/08 07:50:55;;;;;;;1.48;1.38;;;26.00;99.40;;;;;;5075906;28;20708;-80
2023/06/08 07:53:22;;;;;;;1.60;1.50;;;26.40;99.90;;;;;;5076037;28;20637;-85
2023/06/08 07:55:49;;;;;;;2.08;1.95;;;26.30;99.90;;;;;;5076038;28;20245;-85
2023/06/08 07:58:15;;;;;;;5.35;1.83;;;26.30;99.90;;;;;;5076116;28;20209;-87
2023/06/08 08:00:43;;;;;;;1.63;1.52;;;26.20;99.90;;;;;;5076090;28;20217;-85
2023/06/08 08:03:10;;;;;;;1.77;1.67;;;26.00;99.90;;;;;;5076027;28;20201;-88
2023/06/08 08:05:37;;;;;;;1.88;1.77;;;25.70;99.90;;;;;;5076365;28;20225;-89
2023/06/08 08:08:04;;;;;;;2.00;1.90;;;25.50;99.90;;;;;;5075582;28;20552;-85
2023/06/08 08:10:31;;;;;;;2.40;2.00;;;25.70;99.90;;;;;;5075248;28;20199;-86
2023/06/08 08:12:57;;;;;;;2.17;2.00;;;26.30;99.90;;;;;;5076112;28;20205;-86
2023/06/08 08:15:24;;;;;;;1.92;1.80;;;27.10;99.90;;;;;;5075833;28;20222;-87
2023/06/08 08:17:52;;;;;;;1.63;1.52;;;27.80;97.40;;;;;;5076162;28;20205;-86
2023/06/08 08:20:19;;;;;;;1.80;1.70;;;29.00;94.00;;;;;;5075755;28;20214;-86
2023/06/08 08:22:46;;;;;;;1.75;1.65;;;29.80;91.90;;;;;;5075927;28;20276;-87
2023/06/08 08:25:13;;;;;;;1.88;1.77;;;30.90;89.80;;;;;;5075848;28;20594;-87
2023/06/08 08:27:39;;;;;;;1.38;1.38;;;31.70;81.70;;;;;;5075723;28;20229;-87
2023/06/08 08:30:07;;;;;;;6.63;1.90;;;32.30;79.00;;;;;;5075415;28;20210;-86
2023/06/08 08:32:34;;;;;;;1.20;1.10;;;32.50;76.30;;;;;;5075823;28;20203;-87
2023/06/08 08:35:03;;;;;;;2.10;2.00;;;32.30;74.00;;;;;;5075784;28;20670;-87
2023/06/08 08:37:31;;;;;;;1.85;1.75;;;31.90;74.60;;;;;;5075382;28;20202;-88
2023/06/08 08:39:58;;;;;;;1.50;1.40;;;31.40;78.60;;;;;;5075937;28;20211;-87
2023/06/08 08:42:27;;;;;;;1.88;1.77;;;30.90;77.40;;;;;;5075769;28;20203;-87
2023/06/08 08:44:55;;;;;;;1.70;1.60;;;30.50;76.80;;;;;;5075855;28;20205;-87
2023/06/08 08:47:24;;;;;;;1.77;1.25;;;30.10;78.40;;;;;;5075866;28;20215;-87
2023/06/08 08:49:57;;;;;;;1.70;1.60;;;29.60;80.60;;;;;;5075450;28;20207;-88
2023/06/08 08:52:29;;;;;;;2.30;2.13;;;29.30;80.90;;;;;;5075876;28;20215;-89
2023/06/08 08:54:57;;;;;;;2.00;1.90;;;29.50;81.10;;;;;;5075618;28;20186;-89
2023/06/08 08:57:28;;;;;;;1.80;1.70;;;29.40;81.50;;;;;;5075756;28;20210;-87
2023/06/08 08:59:55;;;;;;;1.70;1.60;;;29.40;80.30;;;;;;5075631;28;20241;-89
2023/06/08 09:02:22;;;;;;;1.73;1.63;;;29.70;79.80;;;;;;5075564;28;20210;-88
2023/06/08 09:04:48;;;;;;;1.90;1.80;;;30.00;76.90;;;;;;5075424;28;20669;-88
2023/06/08 09:07:18;;;;;;;1.67;1.58;;;30.30;75.40;;;;;;5075433;28;20212;-88
2023/06/08 09:10:14;;;;;;;2.22;1.70;;;30.30;75.00;;;;;;5076257;28;20249;-89
2023/06/08 09:12:42;;;;;;;1.80;1.70;;;30.10;74.40;;;;;;5075435;28;20191;-89
2023/06/08 09:15:11;;;;;;;1.63;1.45;;;29.80;75.10;;;;;;5075110;28;20284;-89
2023/06/08 09:17:38;;;;;;;2.03;1.85;;;29.50;74.30;;;;;;5075141;28;20571;-88
2023/06/08 09:20:08;;;;;;;2.08;1.98;;;29.20;75.80;;;;;;5080227;28;20210;-89
2023/06/08 09:22:36;;;;;;;2.03;1.92;;;29.00;74.80;;;;;;5075171;28;20647;-88
2023/06/08 09:25:03;;;;;;;1.65;1.55;;;28.80;77.00;;;;;;5074900;28;20234;-87
2023/06/08 09:27:32;;;;;;;1.40;1.30;;;28.50;75.60;;;;;;5075610;28;20235;-88
2023/06/08 09:29:59;;;;;;;1.67;1.58;;;28.20;77.30;;;;;;5074765;28;20205;-87
2023/06/08 09:32:33;;;;;;;2.00;1.35;;;27.90;77.40;;;;;;5074612;28;20234;-87
2023/06/08 09:35:02;;;;;;;3.03;1.90;;;27.60;78.70;;;;;;5074437;28;20578;-87
2023/06/08 09:37:30;;;;;;;1.73;1.42;;;27.30;79.80;;;;;;5074859;28;20198;-87
2023/06/08 09:39:58;;;;;;;2.17;2.08;;;27.10;79.50;;;;;;5074536;28;20206;-88
2023/06/08 09:42:39;;;;;;;1.88;1.77;;;27.00;80.30;;;;;;5074471;28;20228;-88
2023/06/08 09:45:10;;;;;;;1.88;1.77;;;26.90;81.10;;;;;;5074255;28;20190;-86
2023/06/08 09:47:37;;;;;;;1.90;1.80;;;26.70;80.60;;;;;;5074285;28;20638;-87
2023/06/08 09:50:07;;;;;;;1.88;1.63;;;26.50;83.20;;;;;;5074218;28;20209;-87
2023/06/08 09:52:35;;;;;;;2.38;2.28;;;26.50;83.90;;;;;;5074446;28;20234;-86
2023/06/08 09:55:03;;;;;;;1.77;1.67;;;26.50;84.70;;;;;;5073984;28;20213;-87
2023/06/08 09:57:34;;;;;;;2.08;1.95;;;26.40;83.60;;;;;;5073836;28;20738;-87
2023/06/08 10:00:14;;;;;;;1.88;1.73;;;26.60;82.70;;;;;;5074219;28;20574;-87
2023/06/08 10:02:53;;;;;;;2.67;2.38;;;26.70;82.40;;;;;;5074116;28;20258;-88
2023/06/08 10:05:22;;;;;;;2.42;2.22;;;26.80;78.60;;;;;;5074320;28;20264;-86
2023/06/08 10:07:52;;;;;;;2.42;2.22;;;26.90;79.00;;;;;;5073961;28;20206;-86
2023/06/08 10:10:22;;;;;;;1.95;1.85;;;26.80;80.40;;;;;;5074351;28;20201;-87
2023/06/08 10:12:49;;;;;;;2.35;2.25;;;26.80;79.80;;;;;;5074121;28;20198;-88
2023/06/08 10:15:16;;;;;;;2.67;2.20;;;26.90;78.90;;;;;;5074353;28;20235;-88
2023/06/08 10:17:46;;;;;;;2.35;2.25;;;27.10;75.50;;;;;;5074306;28;20205;-87
2023/06/08 10:20:14;;;;;;;2.95;2.03;;;27.10;73.30;;;;;;5074305;28;20202;-87
2023/06/08 10:22:41;;;;;;;2.47;1.83;;;27.20;70.80;;;;;;5075096;28;20183;-87
2023/06/08 10:25:11;;;;;;;1.92;1.83;;;27.20;66.50;;;;;;5074754;28;20202;-88
2023/06/08 10:27:37;;;;;;;2.58;2.38;;;27.10;66.60;;;;;;5074435;28;20206;-87
2023/06/08 10:30:05;;;;;;;2.72;2.25;;;27.20;68.10;;;;;;5073842;28;20232;-87
2023/06/08 10:32:33;;;;;;;2.47;1.90;;;27.20;69.40;;;;;;5073385;28;20190;-86
2023/06/08 10:35:04;;;;;;;3.67;2.40;;;27.20;71.00;;;;;;5081697;28;20202;-89
2023/06/08 10:37:32;;;;;;;1.98;1.88;;;27.20;71.10;;;;;;5084409;28;20190;-88
2023/06/08 10:40:01;;;;;;;2.10;1.90;;;27.20;72.00;;;;;;5076164;28;20553;-88
2023/06/08 10:42:28;;;;;;;2.17;1.88;;;27.10;68.40;;;;;;5076248;28;20206;-86
2023/06/08 10:44:56;;;;;;;1.73;1.63;;;26.80;67.90;;;;;;5076326;28;20209;-86
2023/06/08 10:47:23;;;;;;;1.90;1.80;;;26.50;69.50;;;;;;5075880;28;20568;-87
2023/06/08 10:49:57;;;;;;;2.72;1.85;;;26.10;70.10;;;;;;5075491;28;20705;-87
2023/06/08 10:52:26;;;;;;;2.00;1.90;;;26.10;71.10;;;;;;5075151;28;20189;-87
2023/06/08 10:54:59;;;;;;;1.63;1.52;;;26.20;72.40;;;;;;5075365;28;20600;-87
2023/06/08 10:57:37;;;;;;;2.22;1.92;;;26.50;71.80;;;;;;5073386;28;20281;-86
2023/06/08 11:00:42;;;;;;;1.80;1.70;;;26.60;72.70;;;;;;5073138;28;20198;-86
2023/06/08 11:03:11;;;;;;;2.55;2.35;;;26.90;71.90;;;;;;5073555;28;20197;-87
2023/06/08 11:05:40;;;;;;;2.15;2.00;;;27.20;72.40;;;;;;5073410;28;20233;-87
2023/06/08 11:08:09;;;;;;;2.45;2.25;;;27.70;69.10;;;;;;5073418;28;20201;-89
2023/06/08 11:10:39;;;;;;;2.63;2.42;;;28.00;67.30;;;;;;5073492;28;20206;-86
2023/06/08 11:13:06;;;;;;;1.95;1.85;;;27.90;65.40;;;;;;5073380;28;20259;-87
2023/06/08 11:15:35;;;;;;;2.40;2.30;;;27.80;65.10;;;;;;5073473;28;20579;-86
2023/06/08 11:18:03;;;;;;;1.90;1.80;;;27.60;66.80;;;;;;5073201;28;20202;-86
2023/06/08 11:20:32;;;;;;;1.98;1.88;;;27.40;65.30;;;;;;5073023;28;20766;-86
2023/06/08 11:23:01;;;;;;;2.08;1.98;;;27.10;66.80;;;;;;5073264;28;20296;-87
2023/06/08 11:25:29;;;;;;;2.20;2.00;;;26.80;68.70;;;;;;5073347;28;20225;-86
2023/06/08 11:27:57;;;;;;;3.20;2.08;;;26.70;67.90;;;;;;5073224;28;20202;-86
2023/06/08 11:30:27;;;;;;;2.15;1.70;;;26.40;69.20;;;;;;5072917;28;20320;-86
2023/06/08 11:32:55;;;;;;;2.38;1.70;;;26.20;68.90;;;;;;5073191;28;20287;-87
2023/06/08 11:35:22;;;;;;;2.38;2.17;;;26.10;67.20;;;;;;5073015;28;20319;-85
2023/06/08 11:37:50;;;;;;;2.35;2.15;;;25.90;68.00;;;;;;5073103;28;20202;-86
2023/06/08 11:40:17;;;;;;;3.50;2.17;;;25.70;68.80;;;;;;5072731;28;20205;-86
2023/06/08 11:42:45;;;;;;;1.98;1.77;;;25.50;70.10;;;;;;5072919;28;20231;-86
2023/06/08 11:45:14;;;;;;;1.63;1.52;;;25.40;70.00;;;;;;5076006;28;20233;-87
2023/06/08 11:47:42;;;;;;;2.33;1.92;;;25.20;70.70;;;;;;5076588;28;20202;-86
2023/06/08 11:50:09;;;;;;;2.65;2.45;;;25.10;68.10;;;;;;5076536;28;20225;-86
2023/06/08 11:52:39;;;;;;;2.30;2.10;;;24.90;68.90;;;;;;5076633;28;20208;-85
2023/06/08 11:55:11;;;;;;;2.80;1.90;;;24.80;70.30;;;;;;5076383;28;20197;-87
2023/06/08 11:57:42;;;;;;;2.53;2.33;;;24.70;70.80;;;;;;5076227;28;20183;-86
2023/06/08 12:00:16;;;;;;;1.90;1.77;;;24.50;77.30;;;;;;5076345;28;20194;-85
2023/06/08 12:02:43;;;;;;;4.30;2.75;;;24.10;79.50;;;;;;5076738;28;20194;-90
2023/06/08 12:05:16;;;;;;;2.92;2.35;;;23.90;86.70;;;;;;5076884;28;20217;-89
2023/06/08 12:07:54;;;;;;;3.33;3.03;;;23.20;94.10;;;;;;5076502;28;20191;-87
2023/06/08 12:10:21;;;;;;;5.10;2.97;;;22.40;99.90;;;;;;5076435;28;20206;-87
2023/06/08 12:12:49;;;;;;;7.00;2.73;;;21.30;99.90;;;;;;5076295;28;20965;-89
2023/06/08 12:15:18;;;;;;;6.60;3.90;;;20.40;99.90;;;;;;5076887;28;20456;-89
2023/06/08 12:17:46;;;;;;;5.30;3.40;;;19.70;99.90;;;;;;5076580;28;20432;-89
2023/06/08 12:20:15;;;;;;;3.57;2.90;;;19.30;99.90;;;;;;5076934;28;20543;-89
2023/06/08 12:22:42;;;;;;;3.97;3.20;;;18.90;99.90;;;;;;5076622;28;20437;-90
2023/06/08 12:25:09;;;;;;;3.10;2.80;;;18.60;99.90;;;;;;5076745;28;20448;-90
2023/06/08 12:27:39;;;;;;;6.30;3.50;;;18.40;99.90;;;;;;5077039;28;20445;-91
2023/06/08 12:30:08;;;;;;;3.47;3.17;;;18.30;99.90;;;;;;5077376;28;20485;-90
2023/06/08 12:32:36;;;;;;;4.67;3.33;;;18.20;99.90;;;;;;5076629;28;20506;-89
2023/06/08 12:35:03;;;;;;;4.93;3.47;;;18.10;99.90;;;;;;5076360;28;20449;-89
2023/06/08 12:37:30;;;;;;;6.80;3.30;;;18.00;99.90;;;;;;5076537;28;20441;-91
2023/06/08 12:39:58;;;;;;;8.30;3.87;;;17.80;99.90;;;;;;5076485;28;20452;-90
2023/06/08 12:42:25;;;;;;;6.30;3.93;;;17.80;99.90;;;;;;5076085;28;20484;-90
2023/06/08 12:44:52;;;;;;;7.57;3.70;;;17.80;99.90;;;;;;5076489;28;20452;-90
2023/06/08 12:47:19;;;;;;;16.63;4.00;;;17.80;99.90;;;;;;5076789;28;20460;-91
2023/06/08 12:49:47;;;;;;;5.10;3.50;;;17.90;99.90;;;;;;5076335;28;20970;-91
2023/06/08 12:52:17;;;;;;;5.33;2.83;;;17.90;99.90;;;;;;5076353;28;20500;-91